KSAC

Sacramento Executive Airport

Sacramento, California, USA
METAR KSAC 151853Z 16009KT 10SM -TSRA SCT036 BKN045 OVC070 10/06 A2998 RMK AO2 RAB40 TSB53 SLP150 P0000 T01000056
Observed Flight Rules
Feb-15 @ 18:53 UTC (19 minutes ago) Visual Flight Rules
Wind Visibility Clouds Conditions
160° at 9 knots 10 miles
  • Scattered at 3,600' AGL
  • Broken at 4,500' AGL
  • Overcast at 7,000' AGL
  • Light Thunderstorm
  • Light Rain
Temperatures Readings Precipitation
Current 10°C / 50°F
Dewpoint 6°C / 43°F
Humidity 76%
Altimeter 29.98" Hg
Pressure 1015 hPa
Elevation 11
Current Rain 0.01
METAR KSAC 151853Z 16009KT 10SM -TSRA SCT036 BKN045 OVC070 10/06 A2998 RMK AO2 RAB40 TSB53 SLP150 P0000 T01000056
Observed Flight Rules
Feb-15 @ 18:53 UTC
(19 minutes ago)
VFR
Wind Visibility
160° at 9 knots 10 miles
Clouds
  • Scattered at 3,600' AGL
  • Broken at 4,500' AGL
  • Overcast at 7,000' AGL
Conditions
  • Light Thunderstorm
  • Light Rain
Temperature Dewpoint
10°C / 50°F 6°C / 43°F
Humidity Altimeter Pressure
76% 29.98" Hg 1015 hPa
Current Rain
0.01